• Join FlightAware (Why Join?)
  • Login
  • US Flag 
03:09AM EDT


 

Airport Tracker/Info


-or-


 

Live Flight TrackerFlight Track Log ✈ N789EX ✈ 24-Nov-2013 ✈ KBFI - KBFI

Flight Track Log - Related Links

Times and Time Zones

All times are in EST time to prevent confusion due to time zone crossing. See the N789EX flight status page for this flight to view local times or setup timezone preferences in your user account.

Time Position Orientation Groundspeed Altitude Reporting Facility
EST Latitude Longitude Course Direction KTS MPH feet Rate Location/Type
01:17PM 47.5547 -122.3264 326° Northwest 192 221 1,300  Level Seattle Center
01:18PM 47.5906 -122.3625 326° Northwest 211 243 2,100 1,080 Climbing Seattle Center
01:18PM 47.5950 -122.3658 333° Northwest 212 244 2,200 2,100 Climbing Seattle Center
01:19PM 47.6414 -122.4400 313° West 257 296 4,500 2,700 Climbing Seattle Center
01:20PM 47.7014 -122.4953 328° Northwest 267 307 7,800 2,880 Climbing Seattle Center
01:21PM 47.7700 -122.4358 30° Northeast 294 338 10,400 1,800 Climbing Seattle Center
01:22PM 47.8386 -122.3628 36° Northeast 312 359 11,500 1,500 Climbing Seattle Center
01:23PM 47.9247 -122.2758 34° Northeast 367 422 13,500 1,680 Climbing Seattle Center
01:24PM 48.0200 -122.2036 27° Northeast 383 441 15,000 780 Climbing Seattle Center
01:25PM 48.1150 -122.1225 30° Northeast 392 451 15,100  Climbing Seattle Center
01:26PM 48.1264 -121.9603 84° East 394 453 15,100 -600 Level Seattle Center
01:27PM 48.1181 -121.8000 94° East 387 445 14,000 -1,500 Descending Seattle Center
01:28PM 48.1094 -121.6447 95° East 376 433 12,100 -1,860 Descending Seattle Center
01:29PM 48.0989 -121.4944 96° East 365 420 10,300 -900 Descending Seattle Center
01:30PM 48.0900 -121.3600 96° East 320 368 10,300  Level Seattle Center
01:31PM 48.0794 -121.2358 97° East 305 351 10,300  Level Seattle Center
01:32PM 48.0703 -121.1114 96° East 303 349 10,300  Level Seattle Center
01:33PM 48.0617 -120.9853 96° East 304 350 10,300  Level Seattle Center
01:34PM 48.0528 -120.8347 95° East 304 350 10,400  Climbing Seattle Center
01:35PM 48.0447 -120.7239 96° East 304 350 10,400  Level Seattle Center
01:36PM 48.0353 -120.5961 96° East 308 354 10,400  Level Seattle Center
01:37PM 48.0297 -120.4692 94° East 308 354 10,400  Level Seattle Center
01:38PM 48.0233 -120.3408 94° East 309 356 10,400  Level Seattle Center
01:39PM 48.0150 -120.2133 96° East 310 357 10,400  Level Seattle Center
01:40PM 48.0058 -120.0589 95° East 311 358 10,400  Level Seattle Center
01:41PM 47.9992 -119.9308 94° East 311 358 10,400  Level Seattle Center
01:42PM 47.9928 -119.8028 94° East 311 358 10,400  Level Seattle Center
01:43PM 47.9861 -119.6753 94° East 310 357 10,400  Level Seattle Center
01:44PM 47.9794 -119.5472 94° East 309 356 10,400  Level Seattle Center
01:45PM 47.9714 -119.4178 95° East 312 359 10,400  Level Seattle Center
01:46PM 47.9617 -119.2889 96° East 314 361 10,400 -60 Level Seattle Center
01:47PM 47.9536 -119.1583 95° East 316 364 10,300 -60 Descending Seattle Center
01:48PM 47.9439 -119.0300 96° East 314 361 10,300  Level Seattle Center
01:49PM 47.9358 -118.9028 95° East 310 357 10,300  Level Seattle Center
01:50PM 47.9272 -118.7725 96° East 315 362 10,300  Level Seattle Center
01:51PM 47.9175 -118.6450 96° East 312 359 10,300  Level Seattle Center
01:52PM 47.9089 -118.5164 96° East 312 359 10,300  Level Seattle Center
01:53PM 47.8981 -118.3617 96° East 313 360 10,300  Level Seattle Center
01:54PM 47.8886 -118.2325 96° East 314 361 10,300  Level Seattle Center
01:55PM 47.8797 -118.1053 96° East 311 358 10,300  Level Seattle Center
01:56PM 47.8711 -117.9775 96° East 310 357 10,300  Level Seattle Center
01:57PM 47.8639 -117.8506 95° East 309 356 10,300  Level Seattle Center
01:58PM 47.8569 -117.7233 95° East 308 354 10,300  Level Seattle Center
01:59PM 47.8467 -117.5969 97° East 308 354 10,300  Level Seattle Center
02:00PM 47.8339 -117.4722 99° East 304 350 10,300  Level Seattle Center
02:01PM 47.8217 -117.3467 98° East 306 352 10,300  Level Seattle Center
02:02PM 47.8089 -117.2200 98° East 307 353 10,300  Level Seattle Center
02:03PM 47.7950 -117.0794 98° East 310 357 10,300  Level Seattle Center
02:04PM 47.7811 -116.9433 99° East 309 356 10,300  Level Seattle Center
02:05PM 47.7692 -116.8361 99° East 311 358 10,300  Level Seattle Center
02:06PM 47.7564 -116.7075 98° East 312 359 10,300  Level Seattle Center
02:07PM 47.7442 -116.5806 98° East 312 359 10,300  Level Seattle Center
02:09PM 47.7317 -116.4525 98° East 311 358 10,300  Level Seattle Center
02:10PM 47.7161 -116.3008 99° East 311 358 10,300  Level Seattle Center
02:11PM 47.7042 -116.1731 98° East 311 358 10,300  Level Seattle Center
02:12PM 47.6911 -116.0453 99° East 314 361 10,300  Level Seattle Center
02:13PM 47.6786 -115.9181 98° East 314 361 10,300  Level Seattle Center
02:14PM 47.6667 -115.7897 98° East 314 361 10,300  Level Seattle Center
02:15PM 47.6731 -115.6747 85° East 313 360 10,300  Level Seattle Center
02:16PM 47.7344 -115.6911 350° North 286 329 10,300  Level Seattle Center
02:17PM 47.7206 -115.8067 260° West 270 311 10,300  Level Seattle Center
02:18PM 47.7144 -115.9147 265° West 265 305 10,300  Level Seattle Center
02:19PM 47.7161 -116.0250 271° West 267 307 10,300  Level Seattle Center
02:20PM 47.7231 -116.1356 275° West 269 310 10,300  Level Seattle Center
02:21PM 47.7331 -116.2433 278° West 267 307 10,300  Level Seattle Center
02:22PM 47.7439 -116.3744 277° West 268 308 10,300  Level Seattle Center
02:23PM 47.7531 -116.4828 277° West 267 307 10,300  Level Seattle Center
02:24PM 47.7614 -116.5911 277° West 267 307 10,300  Level Seattle Center
02:25PM 47.7694 -116.6992 276° West 266 306 10,300  Level Seattle Center
02:26PM 47.7794 -116.8072 278° West 267 307 10,300  Level Seattle Center
02:27PM 47.7931 -116.9333 279° West 269 310 10,300  Level Seattle Center
02:28PM 47.8019 -117.0242 278° West 269 310 10,300  Level Seattle Center
02:29PM 47.8072 -117.1331 274° West 269 310 10,300  Level Seattle Center
02:30PM 47.8167 -117.2653 276° West 271 312 10,300  Level Seattle Center
02:31PM 47.8267 -117.3761 278° West 272 313 10,300 -120 Level Seattle Center
02:32PM 47.8358 -117.4875 277° West 273 314 10,100 -180 Descending Seattle Center
02:33PM 47.8458 -117.5986 278° West 273 314 10,000 -60 Descending Seattle Center
02:34PM 47.8553 -117.7133 277° West 280 322 10,000 720 Level Seattle Center
02:35PM 47.8664 -117.8500 277° West 331 381 11,500 2,160 Climbing Seattle Center
02:36PM 47.8756 -117.9833 276° West 327 376 14,400 2,280 Climbing Seattle Center
02:37PM 47.8869 -118.1250 277° West 348 400 16,200 1,620 Climbing Seattle Center
02:38PM 47.8983 -118.2764 276° West 368 423 17,800 1,740 Climbing Seattle Center
02:39PM 47.9106 -118.4347 277° West 382 440 19,800 2,040 Climbing Seattle Center
02:40PM 47.9258 -118.6319 277° West 399 459 22,000 1,920 Climbing Seattle Center
02:41PM 47.9406 -118.8006 277° West 409 471 23,800 1,560 Climbing Seattle Center
02:42PM 47.9636 -118.9686 282° West 414 476 25,200 1,260 Climbing Seattle Center
02:43PM 48.0031 -119.1358 289° West 424 488 26,400 1,200 Climbing Seattle Center
02:44PM 48.0428 -119.3133 289° West 448 516 27,700 1,500 Climbing Seattle Center
02:45PM 48.0806 -119.4878 288° West 444 511 29,500 1,080 Climbing Seattle Center
02:46PM 48.1206 -119.6661 289° West 450 518 30,000 240 Climbing Seattle Center
02:47PM 48.1617 -119.8536 288° West 470 541 30,000  Level Seattle Center
02:48PM 48.2050 -120.0458 289° West 483 556 30,000 -60 Level Seattle Center
02:49PM 48.2419 -120.2400 286° West 488 562 29,900  Descending Seattle Center
02:50PM 48.2831 -120.4342 288° West 492 566 30,000  Climbing Seattle Center
02:51PM 48.3308 -120.6669 287° West 489 563 30,000  Level Seattle Center
02:52PM 48.3642 -120.8442 286° West 487 560 30,000  Level Seattle Center
02:53PM 48.3978 -121.0425 284° West 492 566 30,000  Level Seattle Center
02:54PM 48.4300 -121.2383 284° West 488 562 30,000  Level Seattle Center
02:55PM 48.4703 -121.4742 285° West 488 562 30,000  Level Seattle Center
02:56PM 48.5022 -121.6703 284° West 486 559 30,000  Level Seattle Center
02:57PM 48.5375 -121.8653 285° West 486 559 30,000  Level Seattle Center
02:58PM 48.4944 -122.0372 249° West 485 558 30,100  Climbing Seattle Center
02:59PM 48.3622 -121.9589 159° South 544 626 30,000 -60 Descending Seattle Center
03:00PM 48.3506 -121.7314 94° East 568 654 30,000  Level Seattle Center
03:01PM 48.3700 -121.5017 83° East 558 642 30,000  Level Seattle Center
03:02PM 48.3878 -121.2708 83° East 556 640 30,000  Level Seattle Center
03:03PM 48.4081 -121.0419 82° East 554 638 30,000  Level Seattle Center
03:05PM 48.4261 -120.8106 83° East 555 639 30,000  Level Seattle Center
03:06PM 48.4339 -120.5783 87° East 557 641 30,000  Level Seattle Center
03:07PM 48.4261 -120.3242 93° East 558 642 30,000  Level Seattle Center
03:08PM 48.4178 -120.0917 93° East 557 641 30,000  Level Seattle Center
03:09PM 48.4061 -119.8589 94° East 558 642 30,000  Level Seattle Center
03:10PM 48.3944 -119.6275 94° East 556 640 30,000  Level Seattle Center
03:11PM 48.3800 -119.3950 95° East 561 646 30,000 -120 Level Seattle Center
03:12PM 48.3647 -119.1636 96° East 559 643 29,800 -600 Descending Seattle Center
03:13PM 48.3519 -118.9508 95° East 522 601 28,800 -960 Descending Seattle Center
03:14PM 48.3392 -118.7228 95° East 469 540 27,900 -420 Descending Seattle Center
03:15PM 48.3278 -118.5528 96° East 423 487 28,000  Climbing Seattle Center
03:16PM 48.3164 -118.3819 96° East 414 476 28,000  Level Seattle Center
03:17PM 48.3050 -118.2108 96° East 413 475 28,000  Level Seattle Center
03:18PM 48.2942 -118.0381 95° East 414 476 28,000  Level Seattle Center
03:19PM 48.2833 -117.8656 95° East 416 479 28,000  Level Seattle Center
03:20PM 48.2708 -117.6942 96° East 414 476 28,000  Level Seattle Center
03:21PM 48.2578 -117.5200 96° East 417 480 28,000  Level Seattle Center
03:22PM 48.2450 -117.3461 96° East 417 480 28,000  Level Seattle Center
03:23PM 48.2328 -117.1725 96° East 418 481 28,000  Level Seattle Center
03:24PM 48.2203 -116.9981 96° East 419 482 28,000  Level Seattle Center
03:25PM 48.2047 -116.8231 98° East 421 484 28,000 -60 Level Seattle Center
03:26PM 48.1914 -116.6503 97° East 418 481 27,900  Descending Seattle Center
03:27PM 48.1797 -116.4758 96° East 419 482 28,000  Climbing Seattle Center
03:28PM 48.1625 -116.2658 97° East 421 484 28,000  Level Seattle Center
03:29PM 48.1483 -116.0883 97° East 427 491 28,000  Level Seattle Center
03:30PM 48.1806 -115.9133 75° East 461 531 28,000  Level Seattle Center
03:31PM 48.2875 -115.9286 355° North 435 501 28,000  Level Seattle Center
03:32PM 48.2892 -116.0886 271° West 418 481 28,000  Level Seattle Center
03:33PM 48.2522 -116.2525 251° West 417 480 28,000  Level Seattle Center
03:34PM 48.2164 -116.4183 252° West 419 482 28,000 -60 Level Seattle Center
03:35PM 48.1978 -116.5903 261° West 420 483 27,900 -60 Descending Seattle Center
03:36PM 48.2069 -116.7606 275° West 414 476 27,900  Level Seattle Center
03:37PM 48.2211 -116.9292 277° West 412 474 27,900  Level Seattle Center
03:38PM 48.2344 -117.0978 277° West 411 473 27,900  Level Seattle Center
03:39PM 48.2483 -117.3011 276° West 411 473 27,900  Level Seattle Center
03:40PM 48.2617 -117.4719 277° West 413 475 28,000  Climbing Seattle Center
03:41PM 48.2775 -117.6481 278° West 422 486 28,000 -60 Level Seattle Center
03:42PM 48.2950 -117.8433 278° West 461 531 27,900 -60 Descending Seattle Center
03:43PM 48.3117 -118.0478 277° West 486 559 27,900  Level Seattle Center
03:44PM 48.3311 -118.2492 278° West 491 565 28,000  Climbing Seattle Center
03:45PM 48.3475 -118.4539 277° West 493 567 28,000  Level Seattle Center
03:46PM 48.3614 -118.6553 276° West 489 563 28,000  Level Seattle Center
03:47PM 48.3744 -118.8603 276° West 493 567 28,000  Level Seattle Center
03:48PM 48.3906 -119.0608 277° West 490 564 28,000  Level Seattle Center
03:49PM 48.4058 -119.3061 275° West 495 570 28,000  Level Seattle Center
03:50PM 48.4197 -119.5131 276° West 500 575 28,000 -60 Level Seattle Center
03:51PM 48.4319 -119.7172 275° West 494 568 27,900 -60 Descending Seattle Center
03:52PM 48.4475 -119.9219 277° West 495 570 27,900  Level Seattle Center
03:53PM 48.4606 -120.1264 276° West 494 568 28,000  Climbing Seattle Center
03:54PM 48.4708 -120.3297 274° West 490 564 28,000  Level Seattle Center
03:55PM 48.4778 -120.5542 273° West 488 562 28,000 1,020 Level Seattle Center
03:56PM 48.4858 -120.7542 274° West 483 556 30,100 1,680 Climbing Seattle Center
03:57PM 48.4892 -120.9444 272° West 463 533 31,500 1,380 Climbing Seattle Center
03:58PM 48.4964 -121.1347 273° West 460 529 33,000 1,320 Climbing Seattle Center
03:59PM 48.5022 -121.3233 273° West 454 522 34,300 1,200 Climbing Seattle Center
04:00PM 48.5053 -121.5089 271° West 449 517 35,500 840 Climbing Seattle Center
04:01PM 48.4136 -121.6247 220° Southwest 463 533 36,100 360 Climbing Seattle Center
04:02PM 48.2997 -121.5111 146° Southeast 514 592 36,300 240 Climbing Seattle Center
04:03PM 48.3186 -121.3050 82° East 509 586 36,700 600 Climbing Seattle Center
04:04PM 48.3739 -121.1119 67° East 505 581 37,600 600 Climbing Seattle Center
04:06PM 48.4264 -120.9178 68° East 502 578 38,000 180 Climbing Seattle Center
04:07PM 48.4275 -120.7019 89° East 514 592 38,000 -180 Level Seattle Center
04:08PM 48.4275 -120.4419 90° East 518 596 37,700 -420 Descending Seattle Center
04:09PM 48.4217 -120.2417 92° East 530 610 37,200 -300 Descending Seattle Center
04:10PM 48.4086 -120.0211 95° East 531 611 37,200  Level Seattle Center
04:11PM 48.3969 -119.8000 94° East 530 610 37,200  Level Seattle Center
04:12PM 48.3872 -119.5786 94° East 531 611 37,200  Level Seattle Center
04:13PM 48.3747 -119.3569 95° East 532 612 37,200 -60 Level Seattle Center
04:14PM 48.3622 -119.1353 95° East 533 613 37,100 -60 Descending Seattle Center
04:15PM 48.3500 -118.8672 94° East 537 618 37,100  Level Seattle Center
04:16PM 48.3386 -118.6439 94° East 538 619 37,100  Level Seattle Center
04:17PM 48.3261 -118.4197 95° East 538 619 37,100  Level Seattle Center
04:18PM 48.3150 -118.1956 94° East 538 619 37,100  Level Seattle Center
04:19PM 48.2994 -117.9711 96° East 540 621 37,100  Level Seattle Center
04:20PM 48.2847 -117.7483 96° East 538 619 37,100  Level Seattle Center
04:21PM 48.2714 -117.5247 95° East 537 618 37,100  Level Seattle Center
04:22PM 48.2558 -117.3028 96° East 535 616 37,100  Level Seattle Center
04:23PM 48.2403 -117.0783 96° East 536 617 37,100  Level Seattle Center
04:24PM 48.2222 -116.8553 97° East 537 618 37,100  Level Seattle Center
04:25PM 48.2036 -116.6336 97° East 535 616 37,100  Level Seattle Center
04:26PM 48.1836 -116.4108 98° East 537 618 37,100  Level Seattle Center
04:27PM 48.1644 -116.1903 97° East 535 616 37,100  Level Seattle Center
04:28PM 48.1467 -115.9689 97° East 535 616 37,100 420 Level Seattle Center
04:29PM 48.1314 -115.7481 96° East 534 615 38,000 540 Climbing Seattle Center
04:30PM 48.2256 -115.5872 49° Northeast 483 556 38,300 240 Climbing Seattle Center
04:31PM 48.3058 -115.6825 322° Northwest 417 480 38,500 180 Climbing Seattle Center
04:32PM 48.2889 -115.8636 262° West 423 487 38,700 240 Climbing Seattle Center
04:33PM 48.2722 -116.0378 262° West 426 490 39,000 120 Climbing Seattle Center
04:34PM 48.2578 -116.2158 263° West 430 495 39,000  Level Seattle Center
04:35PM 48.2417 -116.3925 262° West 430 495 39,000  Level Seattle Center
04:36PM 48.2278 -116.5706 263° West 433 498 39,000  Level Seattle Center
04:37PM 48.2139 -116.7483 263° West 432 497 39,000  Level Seattle Center
04:38PM 48.2097 -116.9244 268° West 427 491 39,000  Level Seattle Center
04:39PM 48.2289 -117.0964 280° West 425 489 39,000  Level Seattle Center
04:40PM 48.2481 -117.3072 278° West 425 489 39,000  Level Seattle Center
04:41PM 48.2625 -117.4825 277° West 426 490 39,000 -60 Level Seattle Center
04:42PM 48.2783 -117.6594 278° West 429 494 38,900  Descending Seattle Center
04:43PM 48.2942 -117.8375 278° West 432 497 39,000  Climbing Seattle Center
04:44PM 48.3097 -118.0144 278° West 432 497 39,000  Level Seattle Center
04:45PM 48.3250 -118.1928 277° West 432 497 39,000  Level Seattle Center
04:46PM 48.3417 -118.3694 278° West 431 496 39,000 -60 Level Seattle Center
04:47PM 48.3536 -118.5503 276° West 436 502 38,900 -60 Descending Seattle Center
04:48PM 48.3669 -118.7292 276° West 434 499 38,900  Level Seattle Center
04:49PM 48.3814 -118.9436 276° West 431 496 39,000  Climbing Seattle Center
04:50PM 48.3917 -119.1236 275° West 433 498 39,000  Level Seattle Center
04:51PM 48.4003 -119.3067 274° West 440 506 39,000  Level Seattle Center
04:52PM 48.4119 -119.4875 276° West 437 503 39,000 -60 Level Seattle Center
04:53PM 48.4197 -119.6706 274° West 440 506 38,900  Descending Seattle Center
04:54PM 48.4314 -119.8528 276° West 440 506 39,000  Climbing Seattle Center
04:55PM 48.4422 -120.0347 275° West 439 505 39,000  Level Seattle Center
04:56PM 48.4511 -120.2194 274° West 442 509 39,000 -60 Level Seattle Center
04:57PM 48.4642 -120.4025 276° West 443 510 38,900  Descending Seattle Center
04:58PM 48.4786 -120.6047 276° West 442 509 39,000 -480 Climbing Seattle Center
04:59PM 48.5019 -120.7825 281° West 447 514 38,000 -4,860 Descending Seattle Center
05:00PM 48.6222 -120.8128 351° North 456 525 29,200 -6,480 Descending Seattle Center
05:01PM 48.6694 -120.6292 69° East 498 573 24,900 -2,580 Descending Seattle Center
05:02PM 48.6067 -120.4750 122° Southeast 489 563 24,000 -1,800 Descending Seattle Center
05:04PM 48.4761 -120.4556 174° South 458 527 21,300 -2,400 Descending Seattle Center
05:05PM 48.3983 -120.5561 221° Southwest 431 496 19,200 -2,040 Descending Seattle Center
05:06PM 48.3322 -120.7111 237° Southwest 406 467 17,200 -1,920 Descending Seattle Center
05:07PM 48.2672 -120.8578 236° Southwest 389 448 15,400 -1,980 Descending Seattle Center
05:08PM 48.2097 -120.9872 236° Southwest 377 434 13,200 -1,140 Descending Seattle Center
05:09PM 48.1522 -121.1167 236° Southwest 375 432 13,200  Level Seattle Center
05:10PM 48.0961 -121.2444 237° Southwest 371 427 13,200 -120 Level Seattle Center
05:11PM 48.0336 -121.3731 234° Southwest 375 432 13,000 -180 Descending Seattle Center
05:11PM 48.0181 -121.4136 240° Southwest 372 428 13,000 -540 Level Seattle Center
05:12PM 47.9669 -121.5264 236° Southwest 354 407 12,400 -840 Descending Seattle Center
05:13PM 47.9175 -121.6375 236° Southwest 310 357 11,400 -960 Descending Seattle Center
05:14PM 47.8803 -121.7103 233° Southwest 295 339 10,600 -1,140 Descending Seattle Center
05:14PM 47.8650 -121.7272 217° Southwest 284 327 10,300 -1,440 Descending Seattle Center
05:15PM 47.7872 -121.7547 193° South 289 333 9,000 -1,380 Descending Seattle Center
05:16PM 47.7158 -121.7822 195° South 287 330 7,700 -1,320 Descending Seattle Center
05:16PM 47.7169 -121.7847 303° West 287 330 7,800 -1,320 Climbing Seattle Center
05:17PM 47.6408 -121.8208 198° South 287 330 6,400 -1,380 Descending Seattle Center
05:17PM 47.6417 -121.8206 13° North 285 328 6,400 -1,200 Level Seattle Center
05:18PM 47.5714 -121.8708 206° Southwest 278 320 5,200 -1,200 Descending Seattle Center
05:18PM 47.5608 -121.8792 208° Southwest 275 316 5,100 -300 Descending Seattle Center
05:19PM 47.5097 -121.9264 212° Southwest 260 299 4,900 -240 Descending Seattle Center
05:19PM 47.5019 -121.9353 218° Southwest 238 274 4,900 -840 Level Seattle Center
05:20PM 47.4611 -121.9800 217° Southwest 223 257 4,100 -720 Descending Seattle Center
05:20PM 47.4533 -121.9889 218° Southwest 211 243 4,200  Climbing Seattle Center
05:21PM 47.4047 -122.0422 217° Southwest 214 246 4,100 -540 Descending Seattle Center
05:22PM 47.3822 -122.1064 243° Southwest 205 236 3,200 -900 Descending Seattle Center
05:22PM 47.3831 -122.1231 274° West 187 215 3,100 -240 Descending Seattle Center
05:23PM 47.3933 -122.1772 286° West 183 211 3,000 -120 Descending Seattle Center
05:23PM 47.4006 -122.1919 306° West 180 207 3,000 -900 Level Seattle Center
05:24PM 47.4383 -122.2267 328° Northwest 173 199 2,000 -1,080 Descending Seattle Center
05:25PM 47.4750 -122.2572 331° Northwest 169 194 1,100 -1,020 Descending Seattle Center
05:25PM 47.4836 -122.2642 331° Northwest 164 189 900 -900 Descending Seattle Center
05:26PM 47.5108 -122.2867 331° Northwest 160 184 200 6,720 Descending Seattle Center
05:27PM 47.5436 -122.3142 330° Northwest 156 180 13,000 12,540 Climbing Seattle Center